首页
METAR-TAF:

METAR-TAF

机场 :

肯皮亞圖爾濟, 罗马尼亚

纬度: 46-30-12N, 经度: 023-53-07E, 海拔: 324米

当前天气观测

该预报发布于31分钟前的15:00 UTC
风速12节,风向东南
温度 25°C
湿度 69%
气压 1016 hPa
能见度10公里或以上
少量云层高于4000英尺
多云层高于15000英尺

METAR: LRCT 181500Z 14012KT 9999 FEW040 BKN150 25/19 Q1016 BLU BLU

时间: 18:31 (15:31 UTC)

预报

该预报发布于4小时和31分钟前的11:00 UTC
预报有效从18日的 12点(UTC)到 19日的 12点(UTC)
风速6节,风向东转东南
能见度10公里或以上
散云层高于4000英尺
几率 40% :
短暂存在
从 18日的 12点(UTC)到 18日的 16点(UTC)
风速15节,风向多变
能見度: 6000
散云层高于2500英尺, 积雨云.
多云层高于5000英尺
雷暴, 雨
成为
从 18日的 18点(UTC)到 18日的 20点(UTC)
风速3节,风向多变
多云层高于12000英尺

TAF: LRCT 181100Z 1812/1912 12006KT 9999 SCT040 PROB40 TEMPO 1812/1816 VRB15KT 6000 TSRA SCT025CB BKN050 BECMG 1818/1820 VRB03KT BKN120

超过4000个机场的气象观测和天气预报(METAR&TAF报告)。

可查询的气象台以黄色和红色小点在地图上表示。

将鼠标移到小点上方,可查看气象台名称。

然后点击查看天气观测和预报。

如需切换地图:点击带黑十字的绿色按钮放大地图;点击带横线的绿色按钮缩小地图;或者点击绿色箭头查看邻近地区的地图。


METAR-TAF: